createdAt,value
2022-09-16T00:00:55.098Z,1.58
2022-09-16T00:03:22.877Z,2.13
2022-09-16T00:05:52.777Z,1.27
2022-09-16T00:08:21.825Z,2.10
2022-09-16T00:10:49.686Z,1.30
2022-09-16T00:13:17.840Z,1.42
2022-09-16T00:15:47.811Z,1.83
2022-09-16T00:18:15.675Z,1.40
2022-09-16T00:20:51.922Z,1.60
2022-09-16T00:23:20.649Z,1.98
2022-09-16T00:25:55.340Z,2.05
2022-09-16T00:28:24.038Z,1.70
2022-09-16T00:30:52.215Z,1.53
2022-09-16T00:33:21.188Z,1.42
2022-09-16T00:35:48.861Z,2.20
2022-09-16T00:38:16.616Z,2.20
2022-09-16T00:40:49.152Z,2.13
2022-09-16T00:43:18.730Z,2.33
2022-09-16T00:45:57.049Z,1.70
2022-09-16T00:48:27.860Z,1.80
2022-09-16T00:51:00.953Z,1.85
2022-09-16T00:53:42.754Z,2.22
2022-09-16T00:56:13.642Z,1.97
2022-09-16T00:59:02.685Z,1.75
2022-09-16T01:01:31.855Z,2.33
2022-09-16T01:04:13.860Z,2.60
2022-09-16T01:06:41.658Z,2.42
2022-09-16T01:09:09.559Z,2.50
2022-09-16T01:11:37.101Z,2.15
2022-09-16T01:14:24.756Z,1.88
2022-09-16T01:17:12.399Z,2.40
2022-09-16T01:20:11.448Z,2.33
2022-09-16T01:22:47.422Z,1.60
2022-09-16T01:26:01.830Z,2.25
2022-09-16T01:28:59.614Z,1.73
2022-09-16T01:31:45.843Z,1.60
2022-09-16T01:34:27.569Z,1.73
2022-09-16T01:37:19.170Z,1.97
2022-09-16T01:40:12.235Z,2.15
2022-09-16T01:42:51.758Z,2.20
2022-09-16T01:45:36.853Z,2.00
2022-09-16T01:48:13.399Z,1.95
2022-09-16T01:50:50.617Z,1.67
2022-09-16T01:53:56.455Z,2.10
2022-09-16T01:56:36.854Z,2.38
2022-09-16T01:59:31.810Z,2.35
2022-09-16T02:02:10.349Z,2.33
2022-09-16T02:04:44.318Z,1.57
2022-09-16T02:07:15.917Z,1.80
2022-09-16T02:09:58.591Z,1.70
2022-09-16T02:12:31.796Z,1.90
2022-09-16T02:15:06.421Z,1.85
2022-09-16T02:17:37.987Z,1.23
2022-09-16T02:20:17.821Z,2.30
2022-09-16T02:22:51.875Z,2.55
2022-09-16T02:25:20.542Z,2.63
2022-09-16T02:27:49.803Z,2.17
2022-09-16T02:30:21.126Z,1.60
2022-09-16T02:32:55.820Z,2.00
2022-09-16T02:35:27.405Z,2.45
2022-09-16T02:38:07.789Z,1.92
2022-09-16T02:40:42.034Z,2.05
2022-09-16T02:43:09.800Z,1.63
2022-09-16T02:45:49.224Z,1.55
2022-09-16T02:48:25.998Z,1.73
2022-09-16T02:51:08.372Z,1.50
2022-09-16T02:53:54.874Z,2.17
2022-09-16T02:56:29.851Z,1.50
2022-09-16T02:58:57.962Z,1.67
2022-09-16T03:01:26.276Z,1.63
2022-09-16T03:03:56.667Z,1.85
2022-09-16T03:06:26.050Z,1.60
2022-09-16T03:08:58.521Z,1.20
2022-09-16T03:11:32.366Z,2.63
2022-09-16T03:14:32.867Z,1.38
2022-09-16T03:17:34.173Z,1.20
2022-09-16T03:20:22.986Z,2.33
2022-09-16T03:23:14.549Z,1.67
2022-09-16T03:25:50.681Z,1.50
2022-09-16T03:28:18.143Z,1.58
2022-09-16T03:31:27.702Z,1.40
2022-09-16T03:34:15.466Z,1.80
2022-09-16T03:36:48.507Z,1.17
2022-09-16T03:39:16.555Z,1.55
2022-09-16T03:41:44.497Z,2.00
2022-09-16T03:44:12.178Z,1.30
2022-09-16T03:46:40.209Z,1.65
2022-09-16T03:49:07.761Z,1.67
2022-09-16T03:51:35.653Z,1.40
2022-09-16T03:54:03.376Z,1.98
2022-09-16T03:56:31.494Z,1.42
2022-09-16T03:58:59.136Z,1.80
2022-09-16T04:01:26.658Z,1.00
2022-09-16T04:03:54.233Z,1.20
2022-09-16T04:06:21.623Z,0.95
2022-09-16T04:08:50.938Z,1.38
2022-09-16T04:11:18.476Z,1.75
2022-09-16T04:13:45.889Z,1.33
2022-09-16T04:16:19.530Z,1.75
2022-09-16T04:18:48.336Z,2.60
2022-09-16T04:21:16.259Z,1.70
2022-09-16T04:23:44.309Z,1.70
2022-09-16T04:26:12.289Z,1.73
2022-09-16T04:28:39.849Z,2.15
2022-09-16T04:31:15.276Z,2.00
2022-09-16T04:33:43.459Z,1.85
2022-09-16T04:36:14.001Z,2.22
2022-09-16T04:38:43.287Z,1.00
2022-09-16T04:41:19.942Z,1.80
2022-09-16T04:43:50.943Z,2.17
2022-09-16T04:46:19.036Z,1.63
2022-09-16T04:48:50.744Z,2.05
2022-09-16T04:51:20.220Z,1.20
2022-09-16T04:53:48.136Z,1.95
2022-09-16T04:56:21.063Z,1.60
2022-09-16T04:58:53.902Z,1.60
2022-09-16T05:01:24.286Z,1.70
2022-09-16T05:03:55.609Z,1.77
2022-09-16T05:06:28.567Z,1.33
2022-09-16T05:08:57.292Z,1.67
2022-09-16T05:11:28.003Z,1.13
2022-09-16T05:13:59.128Z,1.45
2022-09-16T05:16:28.077Z,2.63
2022-09-16T05:18:58.366Z,2.03
2022-09-16T05:21:28.121Z,2.55
2022-09-16T05:24:00.251Z,1.70
2022-09-16T05:26:30.407Z,1.30
2022-09-16T05:29:01.771Z,1.60
2022-09-16T05:31:32.250Z,1.67
2022-09-16T05:34:01.019Z,2.08
2022-09-16T05:36:31.035Z,1.48
2022-09-16T05:39:21.669Z,1.42
2022-09-16T05:41:47.467Z,1.80
2022-09-16T05:44:15.536Z,2.10
2022-09-16T05:46:44.223Z,1.15
2022-09-16T05:49:11.930Z,1.33
2022-09-16T05:51:41.636Z,1.88
2022-09-16T05:54:09.281Z,1.50
2022-09-16T05:56:36.837Z,1.30
2022-09-16T05:59:04.439Z,1.50
2022-09-16T06:01:35.051Z,1.58
2022-09-16T06:04:05.224Z,2.10
2022-09-16T06:06:38.592Z,1.60
2022-09-16T06:09:25.618Z,2.85
2022-09-16T06:12:00.989Z,1.83
2022-09-16T06:14:29.593Z,2.20
2022-09-16T06:16:57.525Z,2.17
2022-09-16T06:19:25.163Z,1.63
2022-09-16T06:21:52.759Z,1.52
2022-09-16T06:24:21.513Z,1.60
2022-09-16T06:26:49.828Z,1.70
2022-09-16T06:29:18.266Z,1.45
2022-09-16T06:31:45.866Z,0.90
2022-09-16T06:34:18.872Z,1.30
2022-09-16T06:36:47.023Z,1.30
2022-09-16T06:39:16.468Z,1.00
2022-09-16T06:41:44.404Z,1.83
2022-09-16T06:44:11.897Z,0.90
2022-09-16T06:46:39.611Z,1.63
2022-09-16T06:49:07.125Z,1.02
2022-09-16T06:51:36.475Z,1.27
2022-09-16T06:54:07.527Z,1.70
2022-09-16T06:56:37.962Z,1.23
2022-09-16T06:59:05.954Z,1.35
2022-09-16T07:01:34.160Z,1.67
2022-09-16T07:04:10.775Z,1.73
2022-09-16T07:07:07.692Z,1.48
2022-09-16T07:09:26.320Z,1.03
2022-09-16T07:11:53.919Z,1.25
2022-09-16T07:14:21.657Z,1.67
2022-09-16T07:16:49.283Z,1.65
2022-09-16T07:19:16.960Z,1.58
2022-09-16T07:21:44.786Z,0.90
2022-09-16T07:24:14.738Z,1.13
2022-09-16T07:26:43.658Z,0.95
2022-09-16T07:29:14.503Z,1.10
2022-09-16T07:31:42.423Z,1.15
2022-09-16T07:34:13.103Z,1.27
2022-09-16T07:36:44.113Z,1.35
2022-09-16T07:39:13.938Z,1.40
2022-09-16T07:41:43.934Z,1.08
2022-09-16T07:44:14.571Z,0.82
2022-09-16T07:46:42.497Z,0.90
2022-09-16T07:49:13.690Z,1.33
2022-09-16T07:51:41.856Z,1.67
2022-09-16T07:54:12.300Z,1.08
2022-09-16T07:56:40.991Z,1.48
2022-09-16T07:59:14.375Z,1.03
2022-09-16T08:01:45.347Z,1.17
2022-09-16T08:04:14.031Z,1.58
2022-09-16T08:06:42.070Z,1.27
2022-09-16T08:09:27.224Z,1.63
2022-09-16T08:11:57.459Z,0.90
2022-09-16T08:14:25.254Z,1.42
2022-09-16T08:16:52.811Z,1.90
2022-09-16T08:19:21.263Z,1.70
2022-09-16T08:21:49.416Z,2.00
2022-09-16T08:24:17.048Z,1.20
2022-09-16T08:26:44.534Z,1.30
2022-09-16T08:29:12.599Z,1.80
2022-09-16T08:31:40.434Z,1.85
2022-09-16T08:34:07.873Z,1.40
2022-09-16T08:36:35.690Z,1.00
2022-09-16T08:39:03.758Z,1.25
2022-09-16T08:42:27.836Z,1.10
2022-09-16T08:45:29.323Z,0.95
2022-09-16T08:48:16.376Z,1.73
2022-09-16T08:50:47.702Z,1.90
2022-09-16T08:53:38.506Z,1.40
2022-09-16T08:56:11.974Z,1.60
2022-09-16T08:58:49.214Z,1.95
2022-09-16T09:01:37.161Z,1.65
2022-09-16T09:04:05.365Z,1.10
2022-09-16T09:06:48.201Z,1.52
2022-09-16T09:09:21.782Z,1.55
2022-09-16T09:11:56.823Z,1.17
2022-09-16T09:14:28.262Z,1.83
2022-09-16T09:17:20.865Z,1.73
2022-09-16T09:20:01.684Z,2.00
2022-09-16T09:22:45.868Z,1.90
2022-09-16T09:25:36.960Z,1.80
2022-09-16T09:28:13.955Z,1.80
2022-09-16T09:30:53.311Z,1.63
2022-09-16T09:33:46.042Z,1.63
2022-09-16T09:36:29.964Z,1.80
2022-09-16T09:39:14.720Z,1.95
2022-09-16T09:41:48.567Z,2.10
2022-09-16T09:44:41.812Z,1.53
2022-09-16T09:47:22.298Z,1.40
2022-09-16T09:49:55.127Z,2.42
2022-09-16T09:52:46.416Z,1.70
2022-09-16T09:55:23.883Z,1.52
2022-09-16T09:58:00.898Z,1.37
2022-09-16T10:00:28.653Z,1.70
2022-09-16T10:03:06.205Z,1.35
2022-09-16T10:05:36.465Z,1.33
2022-09-16T10:08:15.882Z,1.42
2022-09-16T10:10:54.208Z,0.90
2022-09-16T10:13:24.208Z,1.88
2022-09-16T10:15:56.031Z,1.80
2022-09-16T10:18:27.653Z,1.35
2022-09-16T10:21:03.926Z,2.00
2022-09-16T10:23:32.328Z,1.77
2022-09-16T10:26:14.846Z,1.42
2022-09-16T10:28:42.789Z,1.50
2022-09-16T10:31:12.167Z,1.90
2022-09-16T10:33:45.160Z,1.08
2022-09-16T10:36:24.097Z,1.37
2022-09-16T10:39:04.430Z,0.90
2022-09-16T10:41:47.170Z,1.23
2022-09-16T10:44:21.585Z,1.08
2022-09-16T10:47:23.847Z,1.73
2022-09-16T10:49:54.091Z,1.30
2022-09-16T10:52:25.097Z,1.20
2022-09-16T10:54:54.318Z,1.33
2022-09-16T10:57:33.513Z,1.55
2022-09-16T11:00:25.818Z,1.02
2022-09-16T11:03:37.884Z,0.70
2022-09-16T11:06:11.731Z,1.20
2022-09-16T11:09:01.736Z,1.02
2022-09-16T11:11:56.516Z,1.20
2022-09-16T11:14:56.387Z,1.17
2022-09-16T11:17:36.970Z,1.00
2022-09-16T11:20:36.435Z,0.95
2022-09-16T11:23:30.439Z,1.30
2022-09-16T11:26:31.685Z,1.48
2022-09-16T11:29:35.691Z,1.00
2022-09-16T11:32:06.275Z,1.43
2022-09-16T11:35:13.810Z,1.05
2022-09-16T11:38:06.765Z,1.15
2022-09-16T11:40:48.531Z,1.30
2022-09-16T11:43:47.166Z,1.65
2022-09-16T11:46:23.870Z,0.93
2022-09-16T11:49:04.165Z,0.95
2022-09-16T11:51:37.779Z,0.80
2022-09-16T11:54:52.925Z,1.65
2022-09-16T11:57:27.970Z,1.13
2022-09-16T12:00:14.356Z,0.87
2022-09-16T12:03:23.531Z,0.85
2022-09-16T12:05:57.275Z,0.82
2022-09-16T12:08:58.810Z,0.75
2022-09-16T12:11:35.179Z,0.85
2022-09-16T12:14:29.734Z,0.70
2022-09-16T12:17:09.016Z,1.35
2022-09-16T12:19:48.087Z,0.82
2022-09-16T12:22:59.249Z,1.23
2022-09-16T12:25:33.573Z,1.55
2022-09-16T12:28:13.419Z,1.00
2022-09-16T12:30:48.853Z,1.02
2022-09-16T12:33:26.445Z,1.52
2022-09-16T12:36:05.850Z,1.05
2022-09-16T12:38:33.725Z,0.95
2022-09-16T12:41:07.129Z,0.80
2022-09-16T12:43:40.298Z,1.42
2022-09-16T12:46:38.967Z,1.05
2022-09-16T12:49:37.811Z,1.30
2022-09-16T12:52:39.047Z,0.98
2022-09-16T12:55:12.757Z,1.10
2022-09-16T12:58:17.811Z,0.93
2022-09-16T13:01:17.114Z,1.20
2022-09-16T13:03:51.344Z,1.88
2022-09-16T13:06:22.486Z,1.00
2022-09-16T13:08:50.978Z,0.80
2022-09-16T13:14:28.379Z,1.48
2022-09-16T13:16:58.261Z,1.23
2022-09-16T13:19:44.926Z,1.90
2022-09-16T13:22:20.411Z,0.97
2022-09-16T13:25:06.711Z,1.30
2022-09-16T13:27:38.430Z,1.23
2022-09-16T13:30:13.259Z,1.10
2022-09-16T13:32:46.857Z,1.30
2022-09-16T13:35:20.740Z,1.30
2022-09-16T13:37:50.697Z,1.17
2022-09-16T13:40:20.502Z,1.33
2022-09-16T13:42:48.432Z,2.00
2022-09-16T13:45:39.613Z,1.30
2022-09-16T13:48:11.128Z,1.37
2022-09-16T13:50:41.564Z,1.30
2022-09-16T13:53:31.855Z,1.48
2022-09-16T13:56:19.888Z,1.25
2022-09-16T13:59:20.697Z,2.40
2022-09-16T14:02:13.064Z,1.43
2022-09-16T14:04:49.708Z,1.45
2022-09-16T14:07:39.132Z,2.08
2022-09-16T14:10:29.998Z,1.55
2022-09-16T14:13:14.363Z,1.50
2022-09-16T14:15:46.288Z,1.40
2022-09-16T14:18:15.893Z,1.77
2022-09-16T14:21:01.899Z,1.63
2022-09-16T14:23:31.491Z,0.98
2022-09-16T14:26:12.613Z,1.50
2022-09-16T14:28:42.663Z,1.40
2022-09-16T14:31:20.868Z,1.30
2022-09-16T14:33:56.695Z,1.20
2022-09-16T14:36:31.244Z,1.60
2022-09-16T14:39:09.474Z,1.23
2022-09-16T14:41:42.246Z,1.27
2022-09-16T14:44:25.717Z,1.50
2022-09-16T14:47:04.871Z,1.40
2022-09-16T14:49:38.810Z,1.48
2022-09-16T14:52:16.862Z,2.28
2022-09-16T14:54:45.606Z,1.57
2022-09-16T14:57:29.002Z,1.30
2022-09-16T15:00:03.530Z,2.35
2022-09-16T15:02:37.702Z,1.48
2022-09-16T15:05:23.121Z,1.50
2022-09-16T15:08:12.588Z,2.00
2022-09-16T15:10:55.460Z,1.67
2022-09-16T15:13:27.087Z,2.40
2022-09-16T15:16:08.528Z,1.48
2022-09-16T15:18:43.578Z,1.77
2022-09-16T15:21:33.766Z,1.77
2022-09-16T15:24:04.237Z,1.90
2022-09-16T15:26:41.315Z,2.05
2022-09-16T15:29:19.522Z,1.67
2022-09-16T15:31:48.100Z,1.60
2022-09-16T15:34:21.333Z,1.60
2022-09-16T15:36:52.001Z,1.38
2022-09-16T15:39:38.263Z,1.83
2022-09-16T15:42:13.132Z,1.63
2022-09-16T15:44:58.087Z,1.50
2022-09-16T15:47:34.500Z,1.40
2022-09-16T15:50:08.513Z,1.45
2022-09-16T15:53:03.690Z,1.60
2022-09-16T15:55:46.825Z,1.83
2022-09-16T15:58:21.016Z,1.50
2022-09-16T16:01:32.031Z,1.87
2022-09-16T16:04:01.969Z,2.30
2022-09-16T16:06:52.902Z,2.63
2022-09-16T16:09:29.995Z,1.95
2022-09-16T16:12:01.394Z,2.78
2022-09-16T16:14:34.108Z,2.37
2022-09-16T16:17:14.107Z,2.70
2022-09-16T16:19:43.973Z,2.67
2022-09-16T16:22:12.453Z,2.60
2022-09-16T16:24:40.868Z,2.17
2022-09-16T16:27:09.118Z,1.60
2022-09-16T16:29:36.674Z,2.03
2022-09-16T16:32:12.789Z,2.38
2022-09-16T16:34:45.571Z,2.40
2022-09-16T16:37:33.769Z,2.38
2022-09-16T16:40:04.952Z,1.83
2022-09-16T16:42:32.868Z,1.85
2022-09-16T16:45:00.680Z,1.75
2022-09-16T16:47:28.429Z,2.00
2022-09-16T16:49:55.988Z,2.00
2022-09-16T16:52:24.949Z,1.90
2022-09-16T16:54:53.722Z,1.40
2022-09-16T16:57:21.548Z,2.20
2022-09-16T16:59:54.222Z,2.42
2022-09-16T17:02:23.101Z,1.88
2022-09-16T17:04:50.672Z,1.80
2022-09-16T17:07:26.204Z,2.25
2022-09-16T17:09:58.441Z,1.80
2022-09-16T17:12:26.880Z,2.15
2022-09-16T17:14:54.956Z,1.80
2022-09-16T17:17:26.506Z,2.00
2022-09-16T17:19:58.531Z,1.50
2022-09-16T17:22:26.954Z,2.03
2022-09-16T17:24:55.700Z,1.67
2022-09-16T17:27:25.828Z,2.65
2022-09-16T17:29:53.615Z,1.90
2022-09-16T17:32:21.279Z,2.30
2022-09-16T17:34:48.799Z,1.70
2022-09-16T17:37:20.093Z,1.67
2022-09-16T17:39:51.043Z,2.35
2022-09-16T17:42:22.002Z,1.97
2022-09-16T17:44:49.623Z,2.40
2022-09-16T17:47:18.825Z,1.98
2022-09-16T17:49:48.956Z,1.80
2022-09-16T17:52:18.234Z,2.53
2022-09-16T17:54:47.213Z,1.70
2022-09-16T17:57:19.908Z,2.30
2022-09-16T17:59:49.261Z,2.40
2022-09-16T18:02:16.902Z,1.50
2022-09-16T18:04:44.763Z,2.00
2022-09-16T18:07:12.183Z,1.80
2022-09-16T18:09:40.862Z,2.03
2022-09-16T18:12:08.378Z,2.20
2022-09-16T18:14:36.343Z,1.52
2022-09-16T18:17:04.286Z,1.75
2022-09-16T18:19:31.941Z,1.17
2022-09-16T18:21:59.882Z,1.77
2022-09-16T18:24:27.739Z,1.35
2022-09-16T18:26:57.025Z,1.25
2022-09-16T18:29:25.093Z,1.52
2022-09-16T18:31:54.496Z,1.60
2022-09-16T18:34:22.693Z,1.75
2022-09-16T18:36:50.326Z,1.75
2022-09-16T18:39:19.508Z,1.65
2022-09-16T18:41:47.720Z,1.27
2022-09-16T18:44:25.200Z,1.20
2022-09-16T18:46:53.758Z,1.20
2022-09-16T18:49:24.654Z,1.55
2022-09-16T18:51:53.762Z,0.90
2022-09-16T18:54:26.510Z,1.67
2022-09-16T18:56:59.391Z,1.50
2022-09-16T18:59:30.924Z,1.40
2022-09-16T19:02:01.442Z,1.85
2022-09-16T19:04:31.790Z,1.67
2022-09-16T19:07:07.948Z,2.00
2022-09-16T19:09:38.691Z,1.53
2022-09-16T19:12:15.657Z,1.80
2022-09-16T19:14:43.456Z,4.20
2022-09-16T19:17:11.083Z,1.00
2022-09-16T19:19:39.255Z,1.38
2022-09-16T19:22:06.712Z,1.57
2022-09-16T19:24:34.701Z,1.52
2022-09-16T19:27:02.513Z,1.98
2022-09-16T19:29:29.928Z,1.33
2022-09-16T19:32:00.782Z,1.33
2022-09-16T19:34:29.257Z,1.40
2022-09-16T19:36:57.430Z,1.60
2022-09-16T19:39:27.665Z,1.90
2022-09-16T19:41:55.609Z,1.02
2022-09-16T19:44:23.564Z,1.90
2022-09-16T19:46:51.087Z,1.50
2022-09-16T19:49:21.880Z,1.77
2022-09-16T19:51:52.818Z,1.90
2022-09-16T19:54:21.873Z,1.88
2022-09-16T19:56:50.892Z,1.60
2022-09-16T19:59:19.630Z,1.70
2022-09-16T20:01:48.340Z,1.65
2022-09-16T20:04:20.116Z,2.30
2022-09-16T20:06:47.830Z,1.30
2022-09-16T20:09:15.274Z,2.20
2022-09-16T20:11:45.869Z,2.23
2022-09-16T20:14:20.037Z,1.80
2022-09-16T20:16:49.055Z,1.83
2022-09-16T20:19:18.837Z,1.77
2022-09-16T20:21:46.985Z,2.30
2022-09-16T20:24:19.357Z,2.47
2022-09-16T20:26:48.590Z,1.77
2022-09-16T20:29:17.793Z,2.13
2022-09-16T20:31:46.456Z,1.60
2022-09-16T20:34:16.457Z,1.70
2022-09-16T20:36:46.271Z,1.63
2022-09-16T20:39:14.877Z,2.00
2022-09-16T20:41:43.419Z,2.13
2022-09-16T20:44:15.097Z,2.80
2022-09-16T20:46:42.981Z,2.20
2022-09-16T20:49:15.069Z,1.80
2022-09-16T20:51:42.853Z,2.13
2022-09-16T20:54:13.253Z,2.70
2022-09-16T20:56:43.416Z,2.45
2022-09-16T20:59:13.376Z,2.72
2022-09-16T21:01:42.187Z,2.10
2022-09-16T21:04:15.762Z,1.90
2022-09-16T21:06:43.585Z,2.75
2022-09-16T21:09:14.098Z,2.78
2022-09-16T21:11:45.059Z,2.22
2022-09-16T21:14:15.559Z,2.07
2022-09-16T21:16:44.272Z,2.78
2022-09-16T21:19:13.709Z,3.15
2022-09-16T21:21:48.987Z,2.72
2022-09-16T21:24:17.128Z,3.53
2022-09-16T21:26:45.704Z,2.30
2022-09-16T21:29:17.943Z,3.22
2022-09-16T21:31:45.569Z,2.90
2022-09-16T21:34:16.062Z,2.75
2022-09-16T21:36:45.096Z,3.30
2022-09-16T21:39:14.194Z,2.90
2022-09-16T21:41:42.726Z,2.50
2022-09-16T21:44:10.965Z,2.72
2022-09-16T21:46:43.483Z,2.80
2022-09-16T21:49:22.961Z,3.53
2022-09-16T21:51:55.425Z,2.60
2022-09-16T21:54:23.884Z,3.25
2022-09-16T21:56:52.708Z,3.25
2022-09-16T21:59:20.921Z,3.40
2022-09-16T22:01:50.419Z,4.28
2022-09-16T22:04:23.770Z,2.97
2022-09-16T22:06:54.538Z,3.40
2022-09-16T22:09:22.556Z,2.92
2022-09-16T22:11:50.296Z,3.20
2022-09-16T22:14:18.021Z,3.25
2022-09-16T22:16:45.635Z,3.70
2022-09-16T22:19:18.856Z,3.35
2022-09-16T22:21:49.084Z,3.20
2022-09-16T22:24:20.534Z,3.55
2022-09-16T22:26:50.164Z,3.78
2022-09-16T22:29:18.373Z,3.07
2022-09-16T22:31:46.309Z,3.42
2022-09-16T22:34:13.875Z,3.17
2022-09-16T22:36:41.553Z,2.65
2022-09-16T22:39:14.191Z,2.83
2022-09-16T22:41:42.221Z,3.23
2022-09-16T22:44:10.373Z,2.70
2022-09-16T22:46:47.461Z,2.70
2022-09-16T22:49:16.160Z,2.88
2022-09-16T22:51:43.815Z,3.13
2022-09-16T22:54:13.720Z,2.67
2022-09-16T22:56:42.249Z,2.72
2022-09-16T22:59:18.935Z,3.00
2022-09-16T23:01:47.319Z,2.47
2022-09-16T23:04:15.492Z,3.78
2022-09-16T23:06:43.657Z,2.27
2022-09-16T23:09:12.867Z,3.45
2022-09-16T23:11:40.824Z,2.80
2022-09-16T23:14:11.146Z,2.10
2022-09-16T23:16:38.940Z,2.58
2022-09-16T23:19:10.261Z,2.10
2022-09-16T23:21:39.144Z,2.40
2022-09-16T23:24:09.032Z,2.10
2022-09-16T23:26:38.937Z,2.35
2022-09-16T23:29:08.902Z,2.70
2022-09-16T23:31:40.735Z,2.27
2022-09-16T23:34:17.571Z,3.22
2022-09-16T23:36:45.843Z,2.70
2022-09-16T23:39:15.521Z,3.67
2022-09-16T23:41:43.841Z,2.72
2022-09-16T23:44:14.080Z,2.27
2022-09-16T23:46:42.048Z,1.90
2022-09-16T23:49:10.463Z,2.60
2022-09-16T23:51:38.095Z,2.63
2022-09-16T23:54:05.948Z,2.30
2022-09-16T23:56:33.980Z,2.13
2022-09-16T23:59:01.742Z,1.88
